sensor_id;sensor_type;location;lat;lon;timestamp;P1;durP1;ratioP1;P2;durP2;ratioP2
4428;SDS011;2227;47.810;8.810;2024-01-07T00:01:17;703.72;;;506.02;;
4428;SDS011;2227;47.810;8.810;2024-01-07T00:03:44;700.08;;;503.63;;
4428;SDS011;2227;47.810;8.810;2024-01-07T00:06:11;701.10;;;507.65;;
4428;SDS011;2227;47.810;8.810;2024-01-07T00:08:38;702.13;;;504.45;;
4428;SDS011;2227;47.810;8.810;2024-01-07T00:11:05;703.43;;;503.50;;
4428;SDS011;2227;47.810;8.810;2024-01-07T00:13:32;702.58;;;502.52;;
4428;SDS011;2227;47.810;8.810;2024-01-07T00:15:59;702.40;;;506.80;;
4428;SDS011;2227;47.810;8.810;2024-01-07T00:18:25;699.13;;;504.17;;
4428;SDS011;2227;47.810;8.810;2024-01-07T00:20:53;697.30;;;508.33;;
4428;SDS011;2227;47.810;8.810;2024-01-07T00:23:20;698.30;;;506.83;;
4428;SDS011;2227;47.810;8.810;2024-01-07T00:25:47;697.80;;;508.92;;
4428;SDS011;2227;47.810;8.810;2024-01-07T00:28:14;698.17;;;508.08;;
4428;SDS011;2227;47.810;8.810;2024-01-07T05:33:12;713.75;;;506.92;;
4428;SDS011;2227;47.810;8.810;2024-01-07T05:35:39;713.20;;;502.05;;
4428;SDS011;2227;47.810;8.810;2024-01-07T05:38:06;713.97;;;509.40;;
4428;SDS011;2227;47.810;8.810;2024-01-07T05:40:33;715.03;;;505.83;;
4428;SDS011;2227;47.810;8.810;2024-01-07T05:42:59;714.13;;;507.25;;
4428;SDS011;2227;47.810;8.810;2024-01-07T05:45:26;713.88;;;508.60;;
4428;SDS011;2227;47.810;8.810;2024-01-07T05:47:53;714.83;;;512.38;;
4428;SDS011;2227;47.810;8.810;2024-01-07T05:50:20;714.95;;;513.47;;
4428;SDS011;2227;47.810;8.810;2024-01-07T05:52:47;715.88;;;507.75;;
4428;SDS011;2227;47.810;8.810;2024-01-07T05:55:14;713.95;;;510.10;;
4428;SDS011;2227;47.810;8.810;2024-01-07T05:57:42;717.15;;;512.22;;
4428;SDS011;2227;47.810;8.810;2024-01-07T06:00:09;715.83;;;510.92;;
4428;SDS011;2227;47.810;8.810;2024-01-07T06:02:38;716.92;;;512.38;;
4428;SDS011;2227;47.810;8.810;2024-01-07T06:05:05;716.07;;;509.10;;
4428;SDS011;2227;47.810;8.810;2024-01-07T06:07:32;716.90;;;510.53;;
4428;SDS011;2227;47.810;8.810;2024-01-07T06:09:59;719.65;;;515.90;;
4428;SDS011;2227;47.810;8.810;2024-01-07T06:12:26;713.78;;;507.15;;
4428;SDS011;2227;47.810;8.810;2024-01-07T06:14:53;715.97;;;510.60;;
4428;SDS011;2227;47.810;8.810;2024-01-07T06:17:20;717.40;;;506.23;;
4428;SDS011;2227;47.810;8.810;2024-01-07T06:19:47;716.17;;;501.73;;
4428;SDS011;2227;47.810;8.810;2024-01-07T06:22:14;716.15;;;502.38;;
4428;SDS011;2227;47.810;8.810;2024-01-07T06:24:41;716.22;;;505.00;;
4428;SDS011;2227;47.810;8.810;2024-01-07T06:27:08;715.75;;;500.63;;
4428;SDS011;2227;47.810;8.810;2024-01-07T06:29:35;714.45;;;499.52;;
4428;SDS011;2227;47.810;8.810;2024-01-07T06:32:01;707.70;;;506.63;;
4428;SDS011;2227;47.810;8.810;2024-01-07T06:34:29;713.97;;;510.63;;
4428;SDS011;2227;47.810;8.810;2024-01-07T06:36:56;704.78;;;508.50;;
4428;SDS011;2227;47.810;8.810;2024-01-07T06:39:24;701.13;;;505.85;;
4428;SDS011;2227;47.810;8.810;2024-01-07T06:41:54;703.37;;;509.23;;
4428;SDS011;2227;47.810;8.810;2024-01-07T06:44:21;702.03;;;502.40;;
4428;SDS011;2227;47.810;8.810;2024-01-07T06:46:48;703.28;;;502.42;;
4428;SDS011;2227;47.810;8.810;2024-01-07T06:49:15;719.83;;;505.70;;
4428;SDS011;2227;47.810;8.810;2024-01-07T06:51:42;719.00;;;509.23;;
4428;SDS011;2227;47.810;8.810;2024-01-07T06:54:09;717.15;;;502.38;;
4428;SDS011;2227;47.810;8.810;2024-01-07T06:56:40;706.67;;;503.75;;
4428;SDS011;2227;47.810;8.810;2024-01-07T06:59:07;708.95;;;507.23;;
4428;SDS011;2227;47.810;8.810;2024-01-07T07:01:34;707.92;;;506.05;;
4428;SDS011;2227;47.810;8.810;2024-01-07T07:04:01;716.75;;;506.52;;
4428;SDS011;2227;47.810;8.810;2024-01-07T07:06:28;714.38;;;508.15;;
4428;SDS011;2227;47.810;8.810;2024-01-07T07:08:55;721.95;;;515.25;;
4428;SDS011;2227;47.810;8.810;2024-01-07T07:11:21;719.28;;;509.55;;
4428;SDS011;2227;47.810;8.810;2024-01-07T07:13:48;722.97;;;511.75;;
4428;SDS011;2227;47.810;8.810;2024-01-07T07:16:15;721.15;;;506.83;;
4428;SDS011;2227;47.810;8.810;2024-01-07T07:18:42;720.25;;;509.60;;
4428;SDS011;2227;47.810;8.810;2024-01-07T07:21:09;718.60;;;503.83;;
4428;SDS011;2227;47.810;8.810;2024-01-07T07:23:36;720.25;;;506.42;;
4428;SDS011;2227;47.810;8.810;2024-01-07T07:26:02;718.13;;;509.00;;
4428;SDS011;2227;47.810;8.810;2024-01-07T07:28:29;708.40;;;504.40;;
4428;SDS011;2227;47.810;8.810;2024-01-07T07:30:56;706.72;;;507.77;;
4428;SDS011;2227;47.810;8.810;2024-01-07T07:33:23;707.73;;;506.17;;
4428;SDS011;2227;47.810;8.810;2024-01-07T07:35:50;708.50;;;508.50;;
4428;SDS011;2227;47.810;8.810;2024-01-07T07:38:17;707.72;;;504.08;;
4428;SDS011;2227;47.810;8.810;2024-01-07T07:40:44;707.72;;;504.98;;
4428;SDS011;2227;47.810;8.810;2024-01-07T07:43:16;707.25;;;507.38;;
4428;SDS011;2227;47.810;8.810;2024-01-07T07:45:43;709.88;;;505.60;;
4428;SDS011;2227;47.810;8.810;2024-01-07T07:48:10;710.58;;;499.73;;
4428;SDS011;2227;47.810;8.810;2024-01-07T07:50:37;708.83;;;500.25;;
4428;SDS011;2227;47.810;8.810;2024-01-07T07:53:03;708.92;;;502.15;;
4428;SDS011;2227;47.810;8.810;2024-01-07T07:55:30;708.63;;;501.60;;
4428;SDS011;2227;47.810;8.810;2024-01-07T07:57:57;709.13;;;506.90;;
4428;SDS011;2227;47.810;8.810;2024-01-07T08:00:24;710.53;;;504.98;;
4428;SDS011;2227;47.810;8.810;2024-01-07T08:02:51;710.53;;;510.27;;
4428;SDS011;2227;47.810;8.810;2024-01-07T08:05:18;709.78;;;509.02;;
4428;SDS011;2227;47.810;8.810;2024-01-07T08:07:45;709.80;;;508.48;;
4428;SDS011;2227;47.810;8.810;2024-01-07T08:10:11;709.72;;;506.90;;
4428;SDS011;2227;47.810;8.810;2024-01-07T08:12:38;710.42;;;513.08;;
4428;SDS011;2227;47.810;8.810;2024-01-07T08:15:05;710.97;;;509.33;;
4428;SDS011;2227;47.810;8.810;2024-01-07T08:17:33;710.67;;;519.27;;
4428;SDS011;2227;47.810;8.810;2024-01-07T08:20:00;708.13;;;507.67;;
4428;SDS011;2227;47.810;8.810;2024-01-07T08:22:28;710.50;;;513.92;;
4428;SDS011;2227;47.810;8.810;2024-01-07T08:24:55;721.88;;;525.63;;
4428;SDS011;2227;47.810;8.810;2024-01-07T08:27:22;710.30;;;511.50;;
4428;SDS011;2227;47.810;8.810;2024-01-07T08:29:49;710.22;;;516.45;;
4428;SDS011;2227;47.810;8.810;2024-01-07T08:32:15;707.57;;;518.13;;
4428;SDS011;2227;47.810;8.810;2024-01-07T08:34:42;710.92;;;517.85;;
4428;SDS011;2227;47.810;8.810;2024-01-07T08:37:09;706.80;;;515.72;;
4428;SDS011;2227;47.810;8.810;2024-01-07T08:39:36;709.75;;;522.08;;
4428;SDS011;2227;47.810;8.810;2024-01-07T08:42:04;709.75;;;524.58;;
4428;SDS011;2227;47.810;8.810;2024-01-07T08:44:31;708.80;;;514.85;;
4428;SDS011;2227;47.810;8.810;2024-01-07T08:46:58;704.67;;;519.55;;
4428;SDS011;2227;47.810;8.810;2024-01-07T08:49:30;707.17;;;525.83;;
4428;SDS011;2227;47.810;8.810;2024-01-07T08:52:00;710.88;;;535.13;;
4428;SDS011;2227;47.810;8.810;2024-01-07T08:54:27;708.00;;;528.33;;
4428;SDS011;2227;47.810;8.810;2024-01-07T08:56:54;712.63;;;514.22;;
4428;SDS011;2227;47.810;8.810;2024-01-07T08:59:21;707.50;;;526.60;;
4428;SDS011;2227;47.810;8.810;2024-01-07T09:01:48;705.60;;;523.70;;
4428;SDS011;2227;47.810;8.810;2024-01-07T09:04:15;705.97;;;523.65;;
4428;SDS011;2227;47.810;8.810;2024-01-07T09:06:44;707.60;;;517.58;;
4428;SDS011;2227;47.810;8.810;2024-01-07T09:09:11;710.40;;;533.50;;
4428;SDS011;2227;47.810;8.810;2024-01-07T09:11:38;710.13;;;548.33;;
4428;SDS011;2227;47.810;8.810;2024-01-07T09:14:05;710.20;;;549.75;;
4428;SDS011;2227;47.810;8.810;2024-01-07T09:16:32;711.47;;;545.60;;
4428;SDS011;2227;47.810;8.810;2024-01-07T09:18:59;719.08;;;552.47;;
4428;SDS011;2227;47.810;8.810;2024-01-07T09:21:26;710.58;;;556.47;;
4428;SDS011;2227;47.810;8.810;2024-01-07T09:23:53;710.93;;;555.67;;
4428;SDS011;2227;47.810;8.810;2024-01-07T09:26:19;711.70;;;556.58;;
4428;SDS011;2227;47.810;8.810;2024-01-07T09:28:46;713.17;;;562.85;;
4428;SDS011;2227;47.810;8.810;2024-01-07T09:31:13;714.40;;;561.23;;
4428;SDS011;2227;47.810;8.810;2024-01-07T09:33:41;720.38;;;557.38;;
4428;SDS011;2227;47.810;8.810;2024-01-07T09:36:08;723.17;;;555.88;;
4428;SDS011;2227;47.810;8.810;2024-01-07T09:38:54;719.28;;;560.08;;
4428;SDS011;2227;47.810;8.810;2024-01-07T09:41:21;722.13;;;561.45;;
4428;SDS011;2227;47.810;8.810;2024-01-07T09:43:48;721.50;;;558.85;;
4428;SDS011;2227;47.810;8.810;2024-01-07T09:46:15;721.22;;;560.80;;
4428;SDS011;2227;47.810;8.810;2024-01-07T09:48:42;720.40;;;564.85;;
4428;SDS011;2227;47.810;8.810;2024-01-07T09:51:10;722.55;;;561.03;;
4428;SDS011;2227;47.810;8.810;2024-01-07T09:53:38;720.78;;;565.55;;
4428;SDS011;2227;47.810;8.810;2024-01-07T09:56:16;722.53;;;568.08;;
4428;SDS011;2227;47.810;8.810;2024-01-07T09:58:46;721.13;;;571.40;;
4428;SDS011;2227;47.810;8.810;2024-01-07T10:01:17;722.25;;;579.10;;
4428;SDS011;2227;47.810;8.810;2024-01-07T10:03:44;717.33;;;572.72;;
4428;SDS011;2227;47.810;8.810;2024-01-07T10:06:12;717.88;;;572.90;;
4428;SDS011;2227;47.810;8.810;2024-01-07T10:08:39;718.65;;;573.67;;
4428;SDS011;2227;47.810;8.810;2024-01-07T10:11:06;716.72;;;577.53;;
4428;SDS011;2227;47.810;8.810;2024-01-07T10:13:35;715.13;;;576.95;;
4428;SDS011;2227;47.810;8.810;2024-01-07T10:16:02;719.85;;;585.97;;
4428;SDS011;2227;47.810;8.810;2024-01-07T10:18:30;717.88;;;582.35;;
4428;SDS011;2227;47.810;8.810;2024-01-07T10:21:01;719.08;;;584.25;;
4428;SDS011;2227;47.810;8.810;2024-01-07T10:23:30;720.05;;;592.58;;
4428;SDS011;2227;47.810;8.810;2024-01-07T10:26:00;719.80;;;580.35;;
4428;SDS011;2227;47.810;8.810;2024-01-07T10:28:40;723.20;;;590.22;;
4428;SDS011;2227;47.810;8.810;2024-01-07T10:31:07;718.97;;;591.70;;
4428;SDS011;2227;47.810;8.810;2024-01-07T10:33:34;720.65;;;588.40;;
4428;SDS011;2227;47.810;8.810;2024-01-07T10:36:02;718.83;;;590.30;;
4428;SDS011;2227;47.810;8.810;2024-01-07T10:38:32;720.65;;;599.92;;
4428;SDS011;2227;47.810;8.810;2024-01-07T10:40:59;719.20;;;594.27;;
4428;SDS011;2227;47.810;8.810;2024-01-07T10:43:30;715.80;;;595.88;;
4428;SDS011;2227;47.810;8.810;2024-01-07T10:46:00;721.93;;;594.53;;
4428;SDS011;2227;47.810;8.810;2024-01-07T10:48:31;722.70;;;592.22;;
4428;SDS011;2227;47.810;8.810;2024-01-07T10:51:02;721.45;;;592.35;;
4428;SDS011;2227;47.810;8.810;2024-01-07T10:53:33;723.40;;;597.20;;
4428;SDS011;2227;47.810;8.810;2024-01-07T10:56:04;718.90;;;595.05;;
4428;SDS011;2227;47.810;8.810;2024-01-07T10:58:35;717.42;;;595.50;;
4428;SDS011;2227;47.810;8.810;2024-01-07T11:01:03;717.85;;;597.08;;
4428;SDS011;2227;47.810;8.810;2024-01-07T11:09:34;716.45;;;594.72;;
4428;SDS011;2227;47.810;8.810;2024-01-07T11:12:15;716.35;;;592.17;;
4428;SDS011;2227;47.810;8.810;2024-01-07T11:14:42;715.50;;;595.85;;
4428;SDS011;2227;47.810;8.810;2024-01-07T11:20:07;723.40;;;598.70;;
4428;SDS011;2227;47.810;8.810;2024-01-07T11:22:44;722.67;;;602.20;;
4428;SDS011;2227;47.810;8.810;2024-01-07T11:25:32;718.93;;;598.67;;
4428;SDS011;2227;47.810;8.810;2024-01-07T11:28:00;720.35;;;597.78;;
4428;SDS011;2227;47.810;8.810;2024-01-07T11:30:28;712.88;;;593.10;;
4428;SDS011;2227;47.810;8.810;2024-01-07T11:32:56;716.75;;;599.97;;
4428;SDS011;2227;47.810;8.810;2024-01-07T11:38:19;724.65;;;603.75;;
4428;SDS011;2227;47.810;8.810;2024-01-07T11:40:46;720.88;;;597.88;;
4428;SDS011;2227;47.810;8.810;2024-01-07T11:43:15;720.53;;;599.97;;
4428;SDS011;2227;47.810;8.810;2024-01-07T11:45:42;718.60;;;599.33;;
4428;SDS011;2227;47.810;8.810;2024-01-07T11:48:09;719.67;;;605.40;;
4428;SDS011;2227;47.810;8.810;2024-01-07T11:50:36;720.33;;;597.23;;
4428;SDS011;2227;47.810;8.810;2024-01-07T11:53:02;720.47;;;593.60;;
4428;SDS011;2227;47.810;8.810;2024-01-07T11:55:30;720.22;;;594.50;;
4428;SDS011;2227;47.810;8.810;2024-01-07T11:58:00;718.90;;;591.78;;
4428;SDS011;2227;47.810;8.810;2024-01-07T12:00:30;722.92;;;598.05;;
4428;SDS011;2227;47.810;8.810;2024-01-07T12:02:59;727.38;;;585.45;;
4428;SDS011;2227;47.810;8.810;2024-01-07T12:05:28;731.00;;;585.45;;
4428;SDS011;2227;47.810;8.810;2024-01-07T12:07:56;725.97;;;581.92;;
4428;SDS011;2227;47.810;8.810;2024-01-07T12:10:23;722.30;;;585.70;;
4428;SDS011;2227;47.810;8.810;2024-01-07T12:12:50;719.07;;;580.40;;
4428;SDS011;2227;47.810;8.810;2024-01-07T12:15:18;719.70;;;586.15;;
4428;SDS011;2227;47.810;8.810;2024-01-07T12:17:56;720.00;;;583.43;;
4428;SDS011;2227;47.810;8.810;2024-01-07T12:20:25;718.90;;;585.05;;
4428;SDS011;2227;47.810;8.810;2024-01-07T12:23:08;720.00;;;594.00;;
4428;SDS011;2227;47.810;8.810;2024-01-07T12:25:36;718.33;;;576.35;;
4428;SDS011;2227;47.810;8.810;2024-01-07T12:28:06;716.17;;;578.72;;
4428;SDS011;2227;47.810;8.810;2024-01-07T12:30:33;721.58;;;578.78;;
4428;SDS011;2227;47.810;8.810;2024-01-07T12:33:01;719.17;;;580.78;;
4428;SDS011;2227;47.810;8.810;2024-01-07T12:35:31;715.13;;;577.53;;
4428;SDS011;2227;47.810;8.810;2024-01-07T12:37:59;719.63;;;580.03;;
4428;SDS011;2227;47.810;8.810;2024-01-07T12:40:26;718.10;;;590.08;;
4428;SDS011;2227;47.810;8.810;2024-01-07T12:42:53;713.13;;;569.28;;
4428;SDS011;2227;47.810;8.810;2024-01-07T12:45:20;718.28;;;567.13;;
4428;SDS011;2227;47.810;8.810;2024-01-07T12:47:47;721.15;;;570.22;;
4428;SDS011;2227;47.810;8.810;2024-01-07T12:50:14;715.33;;;571.45;;
4428;SDS011;2227;47.810;8.810;2024-01-07T12:52:42;715.22;;;566.80;;
4428;SDS011;2227;47.810;8.810;2024-01-07T12:55:09;714.85;;;562.83;;
4428;SDS011;2227;47.810;8.810;2024-01-07T12:57:35;716.30;;;573.08;;
4428;SDS011;2227;47.810;8.810;2024-01-07T13:00:03;714.53;;;567.05;;
4428;SDS011;2227;47.810;8.810;2024-01-07T13:02:33;711.72;;;570.83;;
4428;SDS011;2227;47.810;8.810;2024-01-07T13:05:00;710.65;;;564.97;;
4428;SDS011;2227;47.810;8.810;2024-01-07T13:07:29;711.95;;;568.28;;
4428;SDS011;2227;47.810;8.810;2024-01-07T13:09:56;710.92;;;571.08;;
4428;SDS011;2227;47.810;8.810;2024-01-07T13:12:23;715.22;;;577.60;;
4428;SDS011;2227;47.810;8.810;2024-01-07T13:15:05;711.77;;;567.17;;
4428;SDS011;2227;47.810;8.810;2024-01-07T13:17:33;712.60;;;570.17;;
4428;SDS011;2227;47.810;8.810;2024-01-07T13:20:00;710.72;;;568.45;;
4428;SDS011;2227;47.810;8.810;2024-01-07T13:22:27;712.83;;;578.42;;
4428;SDS011;2227;47.810;8.810;2024-01-07T13:24:54;710.08;;;570.95;;
4428;SDS011;2227;47.810;8.810;2024-01-07T13:27:21;711.63;;;567.53;;
4428;SDS011;2227;47.810;8.810;2024-01-07T13:29:49;714.88;;;571.22;;
4428;SDS011;2227;47.810;8.810;2024-01-07T13:32:16;711.72;;;565.22;;
4428;SDS011;2227;47.810;8.810;2024-01-07T13:34:45;715.05;;;563.53;;
4428;SDS011;2227;47.810;8.810;2024-01-07T13:37:12;712.58;;;560.17;;
4428;SDS011;2227;47.810;8.810;2024-01-07T13:39:39;713.30;;;558.17;;
4428;SDS011;2227;47.810;8.810;2024-01-07T13:42:06;713.47;;;561.90;;
4428;SDS011;2227;47.810;8.810;2024-01-07T13:44:33;714.47;;;559.97;;
4428;SDS011;2227;47.810;8.810;2024-01-07T13:47:01;713.10;;;559.47;;
4428;SDS011;2227;47.810;8.810;2024-01-07T13:49:28;713.13;;;557.15;;
4428;SDS011;2227;47.810;8.810;2024-01-07T13:51:55;714.25;;;557.88;;
4428;SDS011;2227;47.810;8.810;2024-01-07T13:54:22;710.53;;;553.22;;
4428;SDS011;2227;47.810;8.810;2024-01-07T13:56:49;710.33;;;550.65;;
4428;SDS011;2227;47.810;8.810;2024-01-07T13:59:17;714.75;;;553.10;;
4428;SDS011;2227;47.810;8.810;2024-01-07T14:01:44;710.15;;;548.00;;
4428;SDS011;2227;47.810;8.810;2024-01-07T14:04:11;710.97;;;551.60;;
4428;SDS011;2227;47.810;8.810;2024-01-07T14:06:39;709.90;;;540.85;;
4428;SDS011;2227;47.810;8.810;2024-01-07T14:09:06;708.63;;;548.55;;
4428;SDS011;2227;47.810;8.810;2024-01-07T14:11:35;708.97;;;538.92;;
4428;SDS011;2227;47.810;8.810;2024-01-07T14:14:02;704.30;;;540.60;;
4428;SDS011;2227;47.810;8.810;2024-01-07T14:16:28;704.30;;;539.60;;
4428;SDS011;2227;47.810;8.810;2024-01-07T14:18:55;703.60;;;529.75;;
4428;SDS011;2227;47.810;8.810;2024-01-07T14:21:22;709.58;;;531.00;;
4428;SDS011;2227;47.810;8.810;2024-01-07T14:23:49;702.33;;;516.38;;
4428;SDS011;2227;47.810;8.810;2024-01-07T14:26:16;704.78;;;517.88;;
4428;SDS011;2227;47.810;8.810;2024-01-07T14:28:42;704.92;;;517.42;;
4428;SDS011;2227;47.810;8.810;2024-01-07T14:31:09;703.85;;;527.10;;
4428;SDS011;2227;47.810;8.810;2024-01-07T14:33:36;703.73;;;520.37;;
4428;SDS011;2227;47.810;8.810;2024-01-07T14:36:03;709.10;;;518.75;;
4428;SDS011;2227;47.810;8.810;2024-01-07T14:38:30;708.95;;;517.50;;
4428;SDS011;2227;47.810;8.810;2024-01-07T14:40:57;709.67;;;514.22;;
4428;SDS011;2227;47.810;8.810;2024-01-07T14:43:24;714.22;;;520.78;;
4428;SDS011;2227;47.810;8.810;2024-01-07T14:45:51;706.97;;;515.42;;
4428;SDS011;2227;47.810;8.810;2024-01-07T14:48:19;708.63;;;521.58;;
4428;SDS011;2227;47.810;8.810;2024-01-07T14:50:46;707.90;;;517.40;;
4428;SDS011;2227;47.810;8.810;2024-01-07T14:53:14;710.88;;;517.90;;
4428;SDS011;2227;47.810;8.810;2024-01-07T14:55:41;711.72;;;511.83;;
4428;SDS011;2227;47.810;8.810;2024-01-07T14:58:08;708.33;;;517.50;;
4428;SDS011;2227;47.810;8.810;2024-01-07T15:00:35;709.15;;;509.52;;
4428;SDS011;2227;47.810;8.810;2024-01-07T15:03:02;710.50;;;513.47;;
4428;SDS011;2227;47.810;8.810;2024-01-07T15:05:30;711.45;;;510.70;;
4428;SDS011;2227;47.810;8.810;2024-01-07T15:07:57;710.00;;;506.40;;
4428;SDS011;2227;47.810;8.810;2024-01-07T15:10:23;706.85;;;507.88;;
4428;SDS011;2227;47.810;8.810;2024-01-07T15:12:50;711.33;;;506.05;;
4428;SDS011;2227;47.810;8.810;2024-01-07T15:15:27;710.67;;;504.95;;
4428;SDS011;2227;47.810;8.810;2024-01-07T15:17:56;707.90;;;511.33;;
4428;SDS011;2227;47.810;8.810;2024-01-07T15:20:24;707.85;;;505.45;;
4428;SDS011;2227;47.810;8.810;2024-01-07T15:22:51;706.83;;;504.30;;
4428;SDS011;2227;47.810;8.810;2024-01-07T15:25:18;706.63;;;511.33;;
4428;SDS011;2227;47.810;8.810;2024-01-07T15:27:46;708.40;;;507.55;;
4428;SDS011;2227;47.810;8.810;2024-01-07T15:30:13;705.78;;;505.70;;
4428;SDS011;2227;47.810;8.810;2024-01-07T15:32:43;707.92;;;507.23;;
4428;SDS011;2227;47.810;8.810;2024-01-07T15:35:10;708.45;;;511.00;;
4428;SDS011;2227;47.810;8.810;2024-01-07T15:37:36;713.90;;;508.70;;
4428;SDS011;2227;47.810;8.810;2024-01-07T15:40:04;712.75;;;505.05;;
4428;SDS011;2227;47.810;8.810;2024-01-07T15:42:31;713.03;;;501.83;;
4428;SDS011;2227;47.810;8.810;2024-01-07T15:44:58;712.40;;;504.13;;
4428;SDS011;2227;47.810;8.810;2024-01-07T15:47:25;714.78;;;507.23;;
4428;SDS011;2227;47.810;8.810;2024-01-07T15:49:53;713.75;;;504.10;;
4428;SDS011;2227;47.810;8.810;2024-01-07T15:52:20;711.45;;;499.90;;
4428;SDS011;2227;47.810;8.810;2024-01-07T15:54:47;712.03;;;499.83;;
4428;SDS011;2227;47.810;8.810;2024-01-07T15:57:14;706.95;;;498.65;;
4428;SDS011;2227;47.810;8.810;2024-01-07T15:59:42;714.95;;;497.88;;
4428;SDS011;2227;47.810;8.810;2024-01-07T16:02:09;709.72;;;501.27;;
4428;SDS011;2227;47.810;8.810;2024-01-07T16:04:36;708.35;;;502.20;;
4428;SDS011;2227;47.810;8.810;2024-01-07T16:07:03;708.33;;;495.50;;
4428;SDS011;2227;47.810;8.810;2024-01-07T16:09:30;705.05;;;492.42;;
4428;SDS011;2227;47.810;8.810;2024-01-07T16:12:02;707.03;;;492.70;;
4428;SDS011;2227;47.810;8.810;2024-01-07T16:14:29;708.65;;;498.08;;
4428;SDS011;2227;47.810;8.810;2024-01-07T16:16:59;707.88;;;494.77;;
4428;SDS011;2227;47.810;8.810;2024-01-07T16:19:27;711.20;;;498.67;;
4428;SDS011;2227;47.810;8.810;2024-01-07T16:21:55;709.95;;;493.52;;
4428;SDS011;2227;47.810;8.810;2024-01-07T16:24:27;709.47;;;492.98;;
4428;SDS011;2227;47.810;8.810;2024-01-07T16:27:06;709.05;;;493.05;;
4428;SDS011;2227;47.810;8.810;2024-01-07T16:29:34;708.30;;;495.52;;
4428;SDS011;2227;47.810;8.810;2024-01-07T16:32:10;706.03;;;494.80;;
4428;SDS011;2227;47.810;8.810;2024-01-07T16:34:38;708.70;;;495.05;;
4428;SDS011;2227;47.810;8.810;2024-01-07T16:37:06;708.70;;;495.20;;
4428;SDS011;2227;47.810;8.810;2024-01-07T16:39:32;709.05;;;492.15;;
4428;SDS011;2227;47.810;8.810;2024-01-07T16:41:59;708.80;;;494.17;;
4428;SDS011;2227;47.810;8.810;2024-01-07T16:44:27;708.70;;;489.38;;
4428;SDS011;2227;47.810;8.810;2024-01-07T16:46:53;709.70;;;494.65;;
4428;SDS011;2227;47.810;8.810;2024-01-07T16:49:20;710.30;;;496.73;;
4428;SDS011;2227;47.810;8.810;2024-01-07T16:51:50;708.13;;;489.67;;
4428;SDS011;2227;47.810;8.810;2024-01-07T16:54:17;706.08;;;489.77;;
4428;SDS011;2227;47.810;8.810;2024-01-07T16:56:44;709.42;;;493.20;;
4428;SDS011;2227;47.810;8.810;2024-01-07T16:59:11;709.80;;;493.67;;
4428;SDS011;2227;47.810;8.810;2024-01-07T17:01:41;712.92;;;490.60;;
4428;SDS011;2227;47.810;8.810;2024-01-07T17:04:09;711.25;;;490.02;;
4428;SDS011;2227;47.810;8.810;2024-01-07T17:06:36;711.15;;;489.42;;
4428;SDS011;2227;47.810;8.810;2024-01-07T17:09:03;709.73;;;487.60;;
4428;SDS011;2227;47.810;8.810;2024-01-07T17:11:30;710.03;;;490.85;;
4428;SDS011;2227;47.810;8.810;2024-01-07T17:13:59;713.80;;;484.85;;
4428;SDS011;2227;47.810;8.810;2024-01-07T17:16:26;709.67;;;486.30;;
4428;SDS011;2227;47.810;8.810;2024-01-07T17:18:55;708.13;;;485.88;;
4428;SDS011;2227;47.810;8.810;2024-01-07T17:21:22;710.20;;;485.55;;
4428;SDS011;2227;47.810;8.810;2024-01-07T17:23:50;708.92;;;485.88;;
4428;SDS011;2227;47.810;8.810;2024-01-07T17:26:18;707.97;;;482.13;;
4428;SDS011;2227;47.810;8.810;2024-01-07T17:28:46;727.17;;;486.10;;
4428;SDS011;2227;47.810;8.810;2024-01-07T17:31:13;717.72;;;482.25;;
4428;SDS011;2227;47.810;8.810;2024-01-07T17:33:40;715.78;;;480.40;;
4428;SDS011;2227;47.810;8.810;2024-01-07T17:36:07;716.35;;;484.65;;
4428;SDS011;2227;47.810;8.810;2024-01-07T17:38:34;714.88;;;485.77;;
4428;SDS011;2227;47.810;8.810;2024-01-07T17:41:01;715.25;;;477.35;;
4428;SDS011;2227;47.810;8.810;2024-01-07T17:43:28;731.38;;;478.58;;
4428;SDS011;2227;47.810;8.810;2024-01-07T17:45:55;725.00;;;474.13;;
4428;SDS011;2227;47.810;8.810;2024-01-07T17:48:22;721.63;;;475.10;;
4428;SDS011;2227;47.810;8.810;2024-01-07T17:50:49;723.50;;;476.00;;
4428;SDS011;2227;47.810;8.810;2024-01-07T17:53:15;718.70;;;471.50;;
4428;SDS011;2227;47.810;8.810;2024-01-07T17:55:43;717.88;;;472.88;;
4428;SDS011;2227;47.810;8.810;2024-01-07T17:58:11;721.78;;;474.27;;
4428;SDS011;2227;47.810;8.810;2024-01-07T18:00:38;718.50;;;474.40;;
4428;SDS011;2227;47.810;8.810;2024-01-07T18:03:05;717.20;;;469.93;;
4428;SDS011;2227;47.810;8.810;2024-01-07T18:05:35;717.38;;;471.23;;
4428;SDS011;2227;47.810;8.810;2024-01-07T18:08:02;715.80;;;473.15;;
4428;SDS011;2227;47.810;8.810;2024-01-07T18:10:30;717.15;;;475.55;;
4428;SDS011;2227;47.810;8.810;2024-01-07T18:12:57;716.03;;;472.73;;
4428;SDS011;2227;47.810;8.810;2024-01-07T18:15:24;721.42;;;474.63;;
4428;SDS011;2227;47.810;8.810;2024-01-07T18:17:51;718.40;;;474.85;;
4428;SDS011;2227;47.810;8.810;2024-01-07T18:20:18;717.15;;;474.60;;
4428;SDS011;2227;47.810;8.810;2024-01-07T18:22:47;718.30;;;472.75;;
4428;SDS011;2227;47.810;8.810;2024-01-07T18:25:14;718.07;;;475.73;;
4428;SDS011;2227;47.810;8.810;2024-01-07T18:27:45;717.17;;;475.30;;
4428;SDS011;2227;47.810;8.810;2024-01-07T18:30:12;720.67;;;474.27;;
4428;SDS011;2227;47.810;8.810;2024-01-07T18:32:40;721.38;;;471.98;;
4428;SDS011;2227;47.810;8.810;2024-01-07T18:35:08;718.53;;;471.10;;
4428;SDS011;2227;47.810;8.810;2024-01-07T18:37:36;717.90;;;468.83;;
4428;SDS011;2227;47.810;8.810;2024-01-07T18:40:03;724.17;;;467.48;;
4428;SDS011;2227;47.810;8.810;2024-01-07T18:42:30;716.60;;;463.30;;
4428;SDS011;2227;47.810;8.810;2024-01-07T18:44:57;719.20;;;465.70;;
4428;SDS011;2227;47.810;8.810;2024-01-07T18:47:24;716.92;;;469.65;;
4428;SDS011;2227;47.810;8.810;2024-01-07T18:49:53;722.27;;;469.53;;
4428;SDS011;2227;47.810;8.810;2024-01-07T18:52:20;719.03;;;469.17;;
4428;SDS011;2227;47.810;8.810;2024-01-07T18:54:47;716.83;;;470.70;;
4428;SDS011;2227;47.810;8.810;2024-01-07T18:57:14;720.42;;;475.98;;
4428;SDS011;2227;47.810;8.810;2024-01-07T18:59:44;727.27;;;475.20;;
4428;SDS011;2227;47.810;8.810;2024-01-07T19:02:11;714.58;;;455.27;;
4428;SDS011;2227;47.810;8.810;2024-01-07T19:04:38;714.22;;;453.40;;
4428;SDS011;2227;47.810;8.810;2024-01-07T19:07:06;716.23;;;458.00;;
4428;SDS011;2227;47.810;8.810;2024-01-07T19:09:33;715.20;;;457.45;;
4428;SDS011;2227;47.810;8.810;2024-01-07T19:12:00;722.87;;;472.07;;
4428;SDS011;2227;47.810;8.810;2024-01-07T19:14:28;725.00;;;470.27;;
4428;SDS011;2227;47.810;8.810;2024-01-07T19:16:59;721.53;;;466.77;;
4428;SDS011;2227;47.810;8.810;2024-01-07T19:19:26;723.60;;;471.25;;
4428;SDS011;2227;47.810;8.810;2024-01-07T19:22:02;721.20;;;468.17;;
4428;SDS011;2227;47.810;8.810;2024-01-07T19:24:29;724.25;;;472.45;;
4428;SDS011;2227;47.810;8.810;2024-01-07T19:26:56;722.13;;;473.15;;
4428;SDS011;2227;47.810;8.810;2024-01-07T19:29:23;721.93;;;470.27;;
4428;SDS011;2227;47.810;8.810;2024-01-07T19:31:50;722.17;;;471.23;;
4428;SDS011;2227;47.810;8.810;2024-01-07T19:34:17;726.03;;;473.13;;
4428;SDS011;2227;47.810;8.810;2024-01-07T19:36:44;725.13;;;482.17;;
4428;SDS011;2227;47.810;8.810;2024-01-07T19:39:11;723.63;;;470.83;;